M I D A S
Marine Information and Data Acquisition System
Tripno 1326 of the Zeeleeuw from 2007-08-29 06:33:39 to 2007-08-29 13:56:30
Back to CruiseResearch ActivitiesStationsMapUnderway DataData graphs

EquipmentUnitsComment
TimeDGPSUTC
LatitudeDGPSDM.mWGS84
LongitudeDGPSDM.mWGS84
HeadingGyrodeg 
SOGDGPSknotsSpeed over ground
COGDGPSdegCourse over ground
DepthEcho soundermeters200 kHz
Missing or incorrect values are displayed as -999
Navigation data collected by the RV Zeeleeuw from 2007-08-29 06:37:41 to 2007-08-29 14:07:31
                                                                                    Next 1000 lines
Time Latitude Longitude Heading SOG COG Depth
2007-08-29 06:37:51 51°13.601 2°56.098 114.7 0.6 294 6.4
2007-08-29 06:37:56 51°13.602 2°56.096 114.6 0.9 293 6.4
2007-08-29 06:38:01 51°13.602 2°56.093 114.6 1.5 295 6.5
2007-08-29 06:38:06 51°13.603 2°56.089 114.7 2 295 6.6
2007-08-29 06:38:11 51°13.604 2°56.085 114.8 2.4 295 6.7
2007-08-29 06:38:16 51°13.606 2°56.079 114.8 2.9 294 -999
2007-08-29 06:38:22 51°13.609 2°56.071 114.8 3.2 294 -999
2007-08-29 06:38:27 51°13.611 2°56.064 114.7 3.5 293 -999
2007-08-29 06:38:31 51°13.612 2°56.058 114.6 3.8 294 -999
2007-08-29 06:38:36 51°13.614 2°56.05 114.6 4.1 293 -999
2007-08-29 06:38:42 51°13.617 2°56.039 114.6 4.2 293 -999
2007-08-29 06:38:47 51°13.619 2°56.03 114.9 4.4 293 -999
2007-08-29 06:38:51 51°13.622 2°56.023 115.5 4.5 293 -999
2007-08-29 06:38:56 51°13.625 2°56.013 116.4 4.8 294 -999
2007-08-29 06:39:01 51°13.628 2°56.003 117.2 5 295 -999
2007-08-29 06:39:06 51°13.632 2°55.992 117.7 5.2 296 -999
2007-08-29 06:39:11 51°13.635 2°55.982 118.5 5.3 297 -999
2007-08-29 06:39:16 51°13.638 2°55.971 118.9 5.4 297 -999
2007-08-29 06:39:21 51°13.641 2°55.961 118.9 5.5 297 -999
2007-08-29 06:39:26 51°13.644 2°55.95 118.4 5.6 297 -999
2007-08-29 06:39:31 51°13.647 2°55.939 118.2 5.4 298 -999
2007-08-29 06:39:36 51°13.651 2°55.929 117.7 5.2 296 -999
2007-08-29 06:39:41 51°13.654 2°55.919 116.9 5 296 -999
2007-08-29 06:39:46 51°13.657 2°55.909 116.1 4.9 295 -999
2007-08-29 06:39:51 51°13.659 2°55.9 114.9 4.8 295 -999
2007-08-29 06:39:56 51°13.662 2°55.89 113.9 4.6 293 9.4
2007-08-29 06:40:01 51°13.664 2°55.882 112.9 4.4 293 9.1
2007-08-29 06:40:06 51°13.666 2°55.873 111.8 4.2 290 9.3
2007-08-29 06:40:11 51°13.668 2°55.865 110.5 4 290 9.1
2007-08-29 06:40:16 51°13.67 2°55.857 109.4 3.8 289 9.1
2007-08-29 06:40:21 51°13.671 2°55.849 107.4 3.7 288 9.1
2007-08-29 06:40:26 51°13.673 2°55.842 105.9 3.5 286 9
2007-08-29 06:40:31 51°13.674 2°55.835 104.3 3.3 285 9.1
2007-08-29 06:40:36 51°13.675 2°55.827 103 3.2 284 9
2007-08-29 06:40:41 51°13.676 2°55.82 101 3.2 283 9
2007-08-29 06:40:46 51°13.677 2°55.814 99.6 3.1 281 8.8
2007-08-29 06:40:51 51°13.678 2°55.807 97.6 3 280 8.7
2007-08-29 06:40:56 51°13.679 2°55.801 96.3 2.9 277 8.6
2007-08-29 06:41:01 51°13.679 2°55.795 94.4 2.8 275 8.5
2007-08-29 06:41:06 51°13.679 2°55.789 92.2 2.7 275 8.7
2007-08-29 06:41:11 51°13.679 2°55.783 90.4 2.6 273 8.8
2007-08-29 06:41:16 51°13.679 2°55.778 89 2.6 273 8.9
2007-08-29 06:41:20 51°13.679 2°55.773 87.4 2.4 270 8.9
2007-08-29 06:41:26 51°13.679 2°55.767 86 2.3 270 9
2007-08-29 06:41:31 51°13.678 2°55.763 84.6 2.1 269 9
2007-08-29 06:41:36 51°13.678 2°55.759 83.4 1.8 269 9
2007-08-29 06:41:41 51°13.678 2°55.755 81.8 1.6 266 8.9
2007-08-29 06:41:46 51°13.678 2°55.752 79.9 1.5 267 9
2007-08-29 06:41:51 51°13.679 2°55.748 77.6 1.4 267 8.9
2007-08-29 06:41:56 51°13.679 2°55.745 76.3 1.3 266 8.9
2007-08-29 06:42:01 51°13.679 2°55.742 75 1.3 268 9.1
2007-08-29 06:42:06 51°13.679 2°55.739 74 1.3 266 9.4
2007-08-29 06:42:11 51°13.678 2°55.737 73.2 1.3 268 9.7
2007-08-29 06:42:16 51°13.678 2°55.734 72.5 1.2 269 9.8
2007-08-29 06:42:21 51°13.678 2°55.732 71.8 1.1 268 10.1
2007-08-29 06:42:26 51°13.678 2°55.73 70.9 1 268 10.5
2007-08-29 06:42:31 51°13.678 2°55.728 69.9 0.8 272 10.8
2007-08-29 06:42:36 51°13.678 2°55.727 68.6 0.6 286 11.2
2007-08-29 06:42:41 51°13.678 2°55.726 67.1 0.4 305 11.5
2007-08-29 06:42:46 51°13.679 2°55.725 64.5 0.4 341 11.7
2007-08-29 06:42:51 51°13.68 2°55.725 61.2 0.5 9 11.8
2007-08-29 06:42:56 51°13.681 2°55.726 57.5 0.7 18 11.9
2007-08-29 06:43:01 51°13.682 2°55.727 53.1 0.9 20 11.8
2007-08-29 06:43:06 51°13.683 2°55.727 48.5 1.1 22 11.6
2007-08-29 06:43:11 51°13.685 2°55.728 43.5 1.3 20 11.5
2007-08-29 06:43:16 51°13.687 2°55.729 38.5 1.4 18 11.3
2007-08-29 06:43:20 51°13.689 2°55.73 33.3 1.6 15 11.2
2007-08-29 06:43:26 51°13.692 2°55.73 28.1 1.8 11 11.1
2007-08-29 06:43:31 51°13.695 2°55.731 22.8 2.1 6 11.2
2007-08-29 06:43:36 51°13.698 2°55.731 17.4 2.3 1 11.2
2007-08-29 06:43:41 51°13.701 2°55.73 11.6 2.4 358 11.3
2007-08-29 06:43:46 51°13.705 2°55.73 5.8 2.7 353 11.4
2007-08-29 06:43:51 51°13.709 2°55.728 359.9 3.1 348 10.9
2007-08-29 06:43:56 51°13.714 2°55.726 353.6 3.6 342 10.9
2007-08-29 06:44:00 51°13.719 2°55.723 347.1 4.2 339 10.9
2007-08-29 06:44:06 51°13.726 2°55.717 341.3 5 334 10.4
2007-08-29 06:44:11 51°13.733 2°55.711 337 5.9 333 10.2
2007-08-29 06:44:16 51°13.742 2°55.705 335.6 6.6 334 9.9
2007-08-29 06:44:21 51°13.75 2°55.697 335.6 7 332 9.9
2007-08-29 06:44:26 51°13.759 2°55.69 335.1 6.9 333 9.9
2007-08-29 06:44:31 51°13.767 2°55.683 335 6.7 333 9.8
2007-08-29 06:44:36 51°13.775 2°55.677 335.3 6.6 333 9.8
2007-08-29 06:44:41 51°13.784 2°55.67 335.3 6.9 332 9.7
2007-08-29 06:44:46 51°13.793 2°55.662 334.9 7.1 333 9.6
2007-08-29 06:44:51 51°13.802 2°55.655 334.9 7.3 333 9.8
2007-08-29 06:44:56 51°13.811 2°55.647 335.4 7.5 333 9.7
2007-08-29 06:45:01 51°13.821 2°55.64 335.8 7.8 334 9.8
2007-08-29 06:45:06 51°13.831 2°55.632 336.4 8 334 10
2007-08-29 06:45:11 51°13.842 2°55.625 336.9 8.2 336 9.7
2007-08-29 06:45:16 51°13.852 2°55.617 337.6 8.4 335 9.6
2007-08-29 06:45:21 51°13.863 2°55.609 337.7 8.6 335 9.3
2007-08-29 06:45:26 51°13.874 2°55.602 337.6 8.6 337 9.6
2007-08-29 06:45:31 51°13.885 2°55.594 338.7 8.7 335 9.6
2007-08-29 06:45:36 51°13.896 2°55.586 338.7 8.7 337 9.9
2007-08-29 06:45:40 51°13.905 2°55.58 338.6 8.7 336 9.6
2007-08-29 06:45:46 51°13.918 2°55.57 338.6 8.7 336 9.9
2007-08-29 06:45:51 51°13.929 2°55.562 338.4 8.7 336 9.6
2007-08-29 06:45:56 51°13.94 2°55.555 338.6 8.7 337 9.7
2007-08-29 06:46:01 51°13.951 2°55.547 339 8.7 336 9.4
2007-08-29 06:46:06 51°13.962 2°55.539 339 8.7 337 9.3
2007-08-29 06:46:11 51°13.973 2°55.532 339 8.6 337 9.3
2007-08-29 06:46:16 51°13.985 2°55.525 339.2 8.6 338 9.3
2007-08-29 06:46:21 51°13.995 2°55.517 339.5 8.6 337 9.4
2007-08-29 06:46:26 51°14.007 2°55.51 339.1 8.6 337 9.4
2007-08-29 06:46:31 51°14.018 2°55.502 338.9 8.6 336 9.4
2007-08-29 06:46:36 51°14.028 2°55.494 338.4 8.6 336 9.3
2007-08-29 06:46:41 51°14.039 2°55.487 337.9 8.6 336 9.2
2007-08-29 06:46:46 51°14.05 2°55.479 337.9 8.5 335 9
2007-08-29 06:46:51 51°14.061 2°55.471 337.9 8.5 335 9.2
2007-08-29 06:46:56 51°14.071 2°55.463 337.7 8.5 334 9.2
2007-08-29 06:47:01 51°14.082 2°55.455 337.4 8.4 334 9.1
2007-08-29 06:47:06 51°14.092 2°55.446 336.8 8.4 333 9.1
2007-08-29 06:47:11 51°14.103 2°55.437 336 8.5 332 9.3
2007-08-29 06:47:16 51°14.113 2°55.429 335.3 8.4 332 9.2
2007-08-29 06:47:21 51°14.123 2°55.42 334.6 8.4 331 9.2
2007-08-29 06:47:26 51°14.133 2°55.412 334.4 8.4 333 -999
2007-08-29 06:47:31 51°14.143 2°55.403 334.6 8.4 332 9.1
2007-08-29 06:47:36 51°14.154 2°55.394 334.6 8.3 332 9.1
2007-08-29 06:47:41 51°14.164 2°55.385 334.4 8.3 330 9.1
2007-08-29 06:47:46 51°14.174 2°55.376 333.5 8.3 330 -999
2007-08-29 06:47:51 51°14.183 2°55.366 331.7 8.4 327 9
2007-08-29 06:47:56 51°14.193 2°55.356 329.9 8.4 326 9
2007-08-29 06:48:01 51°14.202 2°55.344 327.8 8.5 324 -999
2007-08-29 06:48:06 51°14.212 2°55.333 325.8 8.6 322 9
2007-08-29 06:48:11 51°14.221 2°55.321 324 8.7 321 9.1
2007-08-29 06:48:16 51°14.23 2°55.308 322.2 8.8 319 -999
2007-08-29 06:48:21 51°14.239 2°55.295 320.6 8.9 317 -999
2007-08-29 06:48:26 51°14.248 2°55.281 319 9 316 -999
2007-08-29 06:48:31 51°14.257 2°55.266 317.5 9.2 315 -999
2007-08-29 06:48:36 51°14.266 2°55.251 316.4 9.4 313 -999
2007-08-29 06:48:41 51°14.275 2°55.236 315.4 9.5 312 8.7
2007-08-29 06:48:46 51°14.284 2°55.219 314.2 9.7 311 8.8
2007-08-29 06:48:51 51°14.293 2°55.203 313.2 9.9 310 9.1
2007-08-29 06:48:56 51°14.301 2°55.185 312.2 10 309 9.1
2007-08-29 06:49:01 51°14.31 2°55.168 311.4 10.2 309 9.1
2007-08-29 06:49:06 51°14.319 2°55.15 310.8 10.4 308 9.2
2007-08-29 06:49:11 51°14.328 2°55.131 310.1 10.6 307 9.2
2007-08-29 06:49:16 51°14.337 2°55.112 309.6 10.7 307 9.3
2007-08-29 06:49:21 51°14.346 2°55.093 309 10.9 306 9.1
2007-08-29 06:49:26 51°14.355 2°55.073 308.3 11.1 306 9.1
2007-08-29 06:49:31 51°14.364 2°55.053 307.8 11.3 306 9.1
2007-08-29 06:49:36 51°14.374 2°55.032 307.7 11.6 307 9.1
2007-08-29 06:49:41 51°14.384 2°55.012 308.7 11.8 309 9
2007-08-29 06:49:46 51°14.395 2°54.992 310.2 11.9 310 9.1
2007-08-29 06:49:51 51°14.406 2°54.972 312.1 12.1 312 9.1
2007-08-29 06:49:56 51°14.418 2°54.953 314.6 12.3 315 9.3
2007-08-29 06:50:01 51°14.431 2°54.934 317.8 12.3 318 9.2
2007-08-29 06:50:06 51°14.444 2°54.916 320.9 12.4 318 9.4
2007-08-29 06:50:11 51°14.457 2°54.898 322.9 12.5 318 9.2
2007-08-29 06:50:16 51°14.469 2°54.879 323.5 12.6 316 9
2007-08-29 06:50:21 51°14.482 2°54.86 323.2 12.6 318 9
2007-08-29 06:50:26 51°14.495 2°54.842 324.3 12.5 319 8.6
2007-08-29 06:50:31 51°14.508 2°54.825 326.4 12.4 321 8.4
2007-08-29 06:50:36 51°14.522 2°54.808 327.7 12.4 322 8.3
2007-08-29 06:50:41 51°14.536 2°54.792 329.4 12.3 324 8.1
2007-08-29 06:50:46 51°14.55 2°54.777 331.2 12.3 325 8
2007-08-29 06:50:51 51°14.564 2°54.762 332.5 12.2 327 8
2007-08-29 06:50:56 51°14.578 2°54.747 333.8 12.2 326 8
2007-08-29 06:51:01 51°14.592 2°54.732 333.8 12.2 328 7.9
2007-08-29 06:51:06 51°14.606 2°54.718 334.5 12.2 327 8
2007-08-29 06:51:11 51°14.621 2°54.703 334.6 12.2 328 8.1
2007-08-29 06:51:16 51°14.635 2°54.688 334.7 12.3 327 8.1
2007-08-29 06:51:21 51°14.649 2°54.674 334.7 12.3 327 8
2007-08-29 06:51:26 51°14.664 2°54.659 334.9 12.3 327 7.9
2007-08-29 06:51:31 51°14.678 2°54.644 335 12.3 327 8.1
2007-08-29 06:51:36 51°14.692 2°54.629 335.2 12.3 326 8.1
2007-08-29 06:51:41 51°14.706 2°54.614 334.8 12.3 326 8.2
2007-08-29 06:51:46 51°14.72 2°54.599 334.5 12.4 326 8.2
2007-08-29 06:51:51 51°14.735 2°54.584 334.5 12.3 327 8.2
2007-08-29 06:51:56 51°14.749 2°54.569 334.5 12.3 327 7.9
2007-08-29 06:52:01 51°14.763 2°54.554 335.1 12.3 327 8.2
2007-08-29 06:52:06 51°14.777 2°54.539 335.1 12.2 327 8.2
2007-08-29 06:52:11 51°14.791 2°54.524 335.2 12.2 326 8.4
2007-08-29 06:52:16 51°14.805 2°54.509 335.2 12.3 326 8.1
2007-08-29 06:52:21 51°14.82 2°54.495 335 12.2 327 7.7
2007-08-29 06:52:26 51°14.834 2°54.48 334.9 12.1 328 7.8
2007-08-29 06:52:31 51°14.848 2°54.467 335.3 12.1 329 8.2
2007-08-29 06:52:36 51°14.863 2°54.452 335.9 12.3 328 8
2007-08-29 06:52:40 51°14.874 2°54.441 336 12.3 328 8.1
2007-08-29 06:52:46 51°14.891 2°54.423 335.5 12.1 327 8
2007-08-29 06:52:51 51°14.905 2°54.409 334.9 12.1 327 7.9
2007-08-29 06:52:56 51°14.92 2°54.395 334.4 12.1 328 7.7
2007-08-29 06:53:01 51°14.934 2°54.38 334.4 12.1 325 7.6
2007-08-29 06:53:06 51°14.947 2°54.364 333.3 12.1 324 7.5
2007-08-29 06:53:11 51°14.96 2°54.348 331.8 12.1 322 7.2
2007-08-29 06:53:16 51°14.973 2°54.331 330.6 12 321 7.1
2007-08-29 06:53:21 51°14.986 2°54.314 329.5 12 320 7
2007-08-29 06:53:26 51°14.998 2°54.297 328.5 12 319 7
2007-08-29 06:53:31 51°15.011 2°54.279 327.8 12 319 7
2007-08-29 06:53:36 51°15.024 2°54.262 327.3 12 318 7
2007-08-29 06:53:41 51°15.036 2°54.245 327.3 12 319 7.1
2007-08-29 06:53:46 51°15.049 2°54.228 327.8 12 321 7
2007-08-29 06:53:51 51°15.062 2°54.212 329.6 12 322 5.3
2007-08-29 06:53:56 51°15.076 2°54.196 331.1 12.1 324 7.2
2007-08-29 06:54:01 51°15.09 2°54.182 332.5 12 327 7.2
2007-08-29 06:54:06 51°15.104 2°54.168 334.7 12 329 7.3
2007-08-29 06:54:11 51°15.118 2°54.155 336.8 11.9 330 7.2
2007-08-29 06:54:16 51°15.133 2°54.142 338.4 11.9 331 7.3
2007-08-29 06:54:21 51°15.147 2°54.13 339.6 11.9 331 7.4
2007-08-29 06:54:26 51°15.162 2°54.117 339.9 12 331 7.4
2007-08-29 06:54:31 51°15.176 2°54.104 340.2 12.1 331 7.5
2007-08-29 06:54:36 51°15.191 2°54.092 340.2 12 333 7.4
2007-08-29 06:54:41 51°15.206 2°54.08 340.9 12.1 333 7.5
2007-08-29 06:54:46 51°15.221 2°54.067 341.2 12.2 331 7.5
2007-08-29 06:54:51 51°15.235 2°54.054 340.6 12.1 330 7.5
2007-08-29 06:54:56 51°15.249 2°54.04 339.6 12.1 329 7.8
2007-08-29 06:55:00 51°15.261 2°54.029 338.7 12.1 329 7.8
2007-08-29 06:55:06 51°15.278 2°54.012 338.2 12.2 328 7.9
2007-08-29 06:55:11 51°15.292 2°53.997 337.2 12.2 326 7.8
2007-08-29 06:55:16 51°15.306 2°53.981 335.6 12.3 325 7.9
2007-08-29 06:55:21 51°15.32 2°53.965 334.1 12.3 323 8
2007-08-29 06:55:26 51°15.334 2°53.949 332.9 12.3 323 8.1
2007-08-29 06:55:31 51°15.348 2°53.932 332.2 12.5 323 8.2
2007-08-29 06:55:36 51°15.361 2°53.915 331.6 12.4 323 8.1
2007-08-29 06:55:41 51°15.375 2°53.899 331.4 12.4 324 8.2
2007-08-29 06:55:46 51°15.389 2°53.884 332.2 12.4 326 8.1
2007-08-29 06:55:51 51°15.404 2°53.869 333.6 12.3 327 8.3
2007-08-29 06:55:56 51°15.418 2°53.855 335.5 12.3 329 8.4
2007-08-29 06:56:01 51°15.433 2°53.841 336.9 12.3 330 8.4
2007-08-29 06:56:06 51°15.448 2°53.828 338.2 12.2 331 8.4
2007-08-29 06:56:11 51°15.462 2°53.815 339.1 12.1 331 8.4
2007-08-29 06:56:16 51°15.477 2°53.803 339.9 12 332 8.7
2007-08-29 06:56:21 51°15.492 2°53.791 340.6 12.1 333 8.6
2007-08-29 06:56:26 51°15.507 2°53.778 341.3 12.2 332 8.6
2007-08-29 06:56:31 51°15.522 2°53.766 341.4 12.2 333 8.7
2007-08-29 06:56:36 51°15.537 2°53.754 341.5 12.1 332 8.7
2007-08-29 06:56:41 51°15.552 2°53.741 341.5 12.1 333 9
2007-08-29 06:56:46 51°15.567 2°53.729 341.7 12.2 333 8.9
2007-08-29 06:56:51 51°15.582 2°53.717 341.8 12.1 333 8.8
2007-08-29 06:56:56 51°15.597 2°53.705 341.8 12.2 333 9
2007-08-29 06:57:01 51°15.612 2°53.692 341.7 12.2 333 9
2007-08-29 06:57:06 51°15.627 2°53.68 341.3 12.1 332 8.9
2007-08-29 06:57:11 51°15.641 2°53.667 341.1 12.1 331 9.1
2007-08-29 06:57:16 51°15.656 2°53.654 340.4 12.1 331 9.1
2007-08-29 06:57:21 51°15.671 2°53.641 340 12.2 330 9.2
2007-08-29 06:57:26 51°15.685 2°53.627 339.4 12.2 329 9.2
2007-08-29 06:57:31 51°15.7 2°53.613 338.5 12.2 329 9.1
2007-08-29 06:57:36 51°15.714 2°53.599 338.2 12.2 329 9.3
2007-08-29 06:57:41 51°15.729 2°53.585 337.8 12.2 328 9.3
2007-08-29 06:57:46 51°15.743 2°53.571 337.5 12.2 329 9.3
2007-08-29 06:57:51 51°15.757 2°53.557 337.3 12.1 329 9.3
2007-08-29 06:57:56 51°15.772 2°53.543 337.3 12.2 329 9.5
2007-08-29 06:58:01 51°15.787 2°53.529 337.5 12.1 330 9.6
2007-08-29 06:58:06 51°15.801 2°53.516 338.2 12.1 331 9.5
2007-08-29 06:58:11 51°15.816 2°53.504 339.1 12.1 332 9.6
2007-08-29 06:58:16 51°15.831 2°53.491 339.8 12.1 332 9.7
2007-08-29 06:58:21 51°15.846 2°53.479 340.2 12.1 332 9.7
2007-08-29 06:58:26 51°15.861 2°53.466 340.4 12.1 332 9.8
2007-08-29 06:58:31 51°15.876 2°53.454 340.6 12.2 332 9.8
2007-08-29 06:58:36 51°15.89 2°53.441 340.5 12.2 332 9.8
2007-08-29 06:58:41 51°15.905 2°53.428 340.5 12.2 332 9.9
2007-08-29 06:58:46 51°15.92 2°53.415 340.6 12.2 332 9.8
2007-08-29 06:58:51 51°15.935 2°53.402 340.4 12.2 331 9.9
2007-08-29 06:58:56 51°15.95 2°53.389 340.2 12.2 331 9.9
2007-08-29 06:59:01 51°15.965 2°53.376 339.6 12.2 330 9.9
2007-08-29 06:59:06 51°15.979 2°53.362 339.2 12.3 330 10
2007-08-29 06:59:11 51°15.994 2°53.348 338.8 12.2 329 10
2007-08-29 06:59:16 51°16.008 2°53.334 338.1 12.2 328 10
2007-08-29 06:59:20 51°16.02 2°53.322 337.6 12.2 329 10.1
2007-08-29 06:59:26 51°16.037 2°53.306 337.6 12.2 329 10.1
2007-08-29 06:59:31 51°16.052 2°53.292 337.9 12.2 330 10
2007-08-29 06:59:36 51°16.067 2°53.279 338.6 12.2 330 10
2007-08-29 06:59:41 51°16.081 2°53.265 339.4 12.2 330 10
2007-08-29 06:59:46 51°16.096 2°53.252 339.7 12.2 330 10.1
2007-08-29 06:59:51 51°16.111 2°53.238 339.7 12.3 331 10.1
2007-08-29 06:59:56 51°16.125 2°53.225 339.7 12.3 330 10.1
2007-08-29 07:00:01 51°16.14 2°53.212 339.9 12.2 331 10
2007-08-29 07:00:06 51°16.155 2°53.199 340 12.1 331 10.2
2007-08-29 07:00:11 51°16.17 2°53.186 340.1 12.1 331 10.3
2007-08-29 07:00:16 51°16.184 2°53.173 340.3 12.2 331 10.3
2007-08-29 07:00:21 51°16.199 2°53.16 340.3 12.2 332 10.3
2007-08-29 07:00:26 51°16.214 2°53.148 340.3 12.1 331 10.1
2007-08-29 07:00:31 51°16.229 2°53.135 340.3 12.1 332 10.1
2007-08-29 07:00:36 51°16.243 2°53.122 340.1 12.2 331 10.3
2007-08-29 07:00:41 51°16.258 2°53.109 339.6 12.2 331 10.3
2007-08-29 07:00:46 51°16.273 2°53.096 339.6 12.2 331 10.4
2007-08-29 07:00:51 51°16.287 2°53.083 339.6 12.2 331 10.3
2007-08-29 07:00:56 51°16.302 2°53.07 339.4 12.2 331 10.5
2007-08-29 07:01:01 51°16.317 2°53.057 339.5 12.1 331 10.4
2007-08-29 07:01:06 51°16.332 2°53.043 339.6 12.2 330 10.5
2007-08-29 07:01:11 51°16.346 2°53.03 339.6 12.2 330 10.4
2007-08-29 07:01:16 51°16.361 2°53.016 339.2 12.3 330 10.4
2007-08-29 07:01:21 51°16.376 2°53.003 339.1 12.2 331 10.3
2007-08-29 07:01:26 51°16.391 2°52.99 339.3 12.2 330 10.3
2007-08-29 07:01:31 51°16.405 2°52.976 339.6 12.3 330 10.4
2007-08-29 07:01:36 51°16.42 2°52.963 339.4 12.2 330 10.3
2007-08-29 07:01:40 51°16.432 2°52.952 339.3 12.2 329 10.4
2007-08-29 07:01:46 51°16.449 2°52.935 339.1 12.2 330 10.4
2007-08-29 07:01:51 51°16.464 2°52.922 339 12.1 330 10.3
2007-08-29 07:01:56 51°16.479 2°52.91 339.6 12.1 331 10.3
2007-08-29 07:02:01 51°16.493 2°52.897 340.1 12.1 333 10.2
2007-08-29 07:02:06 51°16.508 2°52.886 340.7 12 334 10.2
2007-08-29 07:02:11 51°16.523 2°52.874 341.3 12 334 10.1
2007-08-29 07:02:16 51°16.538 2°52.863 341.4 12 334 10
2007-08-29 07:02:21 51°16.553 2°52.851 341.5 11.9 334 9.9
2007-08-29 07:02:26 51°16.568 2°52.839 341.2 11.9 334 10
2007-08-29 07:02:31 51°16.583 2°52.828 340.9 11.9 333 9.9
2007-08-29 07:02:36 51°16.597 2°52.816 340.4 11.9 333 10
2007-08-29 07:02:41 51°16.612 2°52.803 340.1 12 332 10
2007-08-29 07:02:46 51°16.626 2°52.791 339.4 11.9 332 9.8
2007-08-29 07:02:51 51°16.641 2°52.779 338.8 11.9 333 9.9
2007-08-29 07:02:56 51°16.656 2°52.767 339.1 11.8 332 9.9
2007-08-29 07:03:01 51°16.67 2°52.755 339.2 11.9 333 9.8
2007-08-29 07:03:06 51°16.685 2°52.743 339.5 11.9 333 9.5
2007-08-29 07:03:11 51°16.7 2°52.731 339.6 11.9 332 9.4
2007-08-29 07:03:16 51°16.714 2°52.719 339.6 11.9 333 9.3
2007-08-29 07:03:21 51°16.729 2°52.707 339.3 11.8 332 9
2007-08-29 07:03:26 51°16.743 2°52.695 339.2 11.8 332 8.7
2007-08-29 07:03:31 51°16.758 2°52.683 338.9 11.8 333 8.5
2007-08-29 07:03:36 51°16.772 2°52.671 339.1 11.7 333 8.3
2007-08-29 07:03:41 51°16.787 2°52.659 339.4 11.7 333 8.4
2007-08-29 07:03:46 51°16.801 2°52.648 339.6 11.7 333 8.5
2007-08-29 07:03:51 51°16.816 2°52.636 340 11.7 333 8.3
2007-08-29 07:03:56 51°16.83 2°52.625 340.4 11.7 333 8.1
2007-08-29 07:04:01 51°16.845 2°52.613 340.2 11.7 334 8.1
2007-08-29 07:04:06 51°16.859 2°52.602 340.5 11.7 333 8.2
2007-08-29 07:04:11 51°16.874 2°52.59 340.4 11.7 333 8.3
2007-08-29 07:04:16 51°16.888 2°52.578 340.3 11.7 332 8.2
2007-08-29 07:04:21 51°16.902 2°52.565 339.6 11.7 332 8.4
2007-08-29 07:04:26 51°16.917 2°52.553 339.2 11.8 332 8.5
2007-08-29 07:04:31 51°16.931 2°52.541 339.3 11.8 332 8.5
2007-08-29 07:04:36 51°16.946 2°52.529 339.2 11.8 332 8.3
2007-08-29 07:04:41 51°16.96 2°52.517 339.5 11.7 333 8.4
2007-08-29 07:04:46 51°16.974 2°52.505 339.9 11.7 333 8.4
2007-08-29 07:04:51 51°16.989 2°52.494 340.1 11.6 334 8.3
2007-08-29 07:04:56 51°17.003 2°52.482 340.5 11.6 333 8.2
2007-08-29 07:05:01 51°17.018 2°52.471 340.9 11.6 333 8.1
2007-08-29 07:05:06 51°17.032 2°52.459 340.8 11.7 333 8.3
2007-08-29 07:05:11 51°17.047 2°52.447 340.7 11.7 333 8.2
2007-08-29 07:05:16 51°17.061 2°52.436 340.4 11.7 333 8.2
2007-08-29 07:05:21 51°17.076 2°52.424 340.3 11.7 332 8.4
2007-08-29 07:05:26 51°17.09 2°52.412 340.3 11.7 333 8.4
2007-08-29 07:05:31 51°17.104 2°52.399 340 11.8 332 8.5
2007-08-29 07:05:36 51°17.119 2°52.387 339.6 11.8 332 8.5
2007-08-29 07:05:41 51°17.133 2°52.375 339.3 11.7 332 8.6
2007-08-29 07:05:46 51°17.148 2°52.362 339.6 11.8 332 8.8
2007-08-29 07:05:51 51°17.162 2°52.35 340 11.8 332 8.6
2007-08-29 07:05:56 51°17.177 2°52.338 340 11.8 332 8.7
2007-08-29 07:06:01 51°17.192 2°52.326 339.9 11.9 332 8.7
2007-08-29 07:06:06 51°17.206 2°52.313 339.9 11.9 330 8.8
2007-08-29 07:06:11 51°17.22 2°52.299 338.4 11.9 330 8.9
2007-08-29 07:06:16 51°17.234 2°52.285 337.7 11.9 328 8.9
2007-08-29 07:06:21 51°17.248 2°52.272 336.7 11.9 329 8.9
2007-08-29 07:06:26 51°17.262 2°52.258 336.4 11.9 328 8.9
2007-08-29 07:06:31 51°17.277 2°52.244 335.9 11.9 329 8.9
2007-08-29 07:06:36 51°17.291 2°52.23 336.2 11.9 329 8.9
2007-08-29 07:06:41 51°17.305 2°52.217 336.4 11.8 330 9
2007-08-29 07:06:46 51°17.319 2°52.204 337.2 11.9 331 9.1
2007-08-29 07:06:51 51°17.334 2°52.192 338.2 11.9 331 9
2007-08-29 07:06:56 51°17.348 2°52.18 338.9 11.8 332 9
2007-08-29 07:07:01 51°17.362 2°52.168 339.7 11.8 332 9
2007-08-29 07:07:06 51°17.377 2°52.156 339.9 11.8 332 9
2007-08-29 07:07:11 51°17.391 2°52.143 340.1 11.7 332 9
2007-08-29 07:07:16 51°17.406 2°52.132 340.1 11.7 333 9.2
2007-08-29 07:07:21 51°17.42 2°52.12 340.4 11.7 332 9
2007-08-29 07:07:26 51°17.434 2°52.107 340.5 11.7 331 9.1
2007-08-29 07:07:31 51°17.448 2°52.093 340.2 11.7 328 9
2007-08-29 07:07:36 51°17.461 2°52.077 337.4 11.8 322 9
2007-08-29 07:07:41 51°17.474 2°52.06 333.1 11.9 320 9
2007-08-29 07:07:46 51°17.485 2°52.042 329.7 12 316 9
2007-08-29 07:07:51 51°17.497 2°52.023 326.7 12 313 9
2007-08-29 07:07:56 51°17.507 2°52.002 322.6 12.1 307 9.2
2007-08-29 07:08:01 51°17.517 2°51.98 318.4 12.1 306 9.1
2007-08-29 07:08:07 51°17.528 2°51.953 315 12.2 302 9.1
2007-08-29 07:08:11 51°17.535 2°51.934 312.2 12.3 300 9.1
2007-08-29 07:08:16 51°17.542 2°51.909 309 12.4 297 8.8
2007-08-29 07:08:21 51°17.55 2°51.884 305.9 12.5 294 8.9
2007-08-29 07:08:27 51°17.558 2°51.853 303.3 12.6 292 8.9
2007-08-29 07:08:32 51°17.564 2°51.827 301.1 12.6 291 8.9
2007-08-29 07:08:37 51°17.57 2°51.801 299.6 12.6 291 8.8
2007-08-29 07:08:41 51°17.575 2°51.78 299 12.7 290 8.7
2007-08-29 07:08:47 51°17.582 2°51.749 297.8 12.6 291 8.7
2007-08-29 07:08:52 51°17.589 2°51.723 297.7 12.6 292 8.6
2007-08-29 07:08:57 51°17.596 2°51.698 299 12.5 293 8.4
2007-08-29 07:09:02 51°17.603 2°51.672 300.7 12.5 296 8.6
2007-08-29 07:09:07 51°17.611 2°51.648 302.5 12.4 297 8.6
2007-08-29 07:09:12 51°17.619 2°51.623 304.2 12.4 297 8.5
2007-08-29 07:09:17 51°17.627 2°51.599 304.9 12.5 297 8.4
2007-08-29 07:09:22 51°17.635 2°51.575 305.3 12.4 298 8.2
2007-08-29 07:09:27 51°17.643 2°51.55 305.7 12.4 298 8.2
2007-08-29 07:09:32 51°17.652 2°51.526 306.2 12.5 299 8.3
2007-08-29 07:09:37 51°17.66 2°51.502 306.5 12.4 299 8.3
2007-08-29 07:09:42 51°17.668 2°51.478 307 12.4 298 8.5
2007-08-29 07:09:47 51°17.676 2°51.453 307.2 12.5 298 8.5
2007-08-29 07:09:52 51°17.684 2°51.429 306.2 12.5 296 8.2
2007-08-29 07:09:57 51°17.692 2°51.404 305.1 12.5 296 8.3
2007-08-29 07:10:02 51°17.699 2°51.378 304.1 12.6 294 8.3
2007-08-29 07:10:07 51°17.706 2°51.352 302.5 12.6 294 8.4
2007-08-29 07:10:12 51°17.712 2°51.326 301.2 12.6 292 8.4
2007-08-29 07:10:17 51°17.719 2°51.301 300.3 12.6 293 8.5
2007-08-29 07:10:22 51°17.726 2°51.275 300.1 12.6 293 8.6
2007-08-29 07:10:27 51°17.733 2°51.249 300.2 12.7 292 8.7
2007-08-29 07:10:32 51°17.74 2°51.223 299.9 12.7 294 8.5
2007-08-29 07:10:37 51°17.747 2°51.198 300.6 12.7 295 8.6
2007-08-29 07:10:42 51°17.754 2°51.172 301.5 12.7 295 8.9
2007-08-29 07:10:47 51°17.762 2°51.147 302.6 12.7 296 8.8
2007-08-29 07:10:52 51°17.77 2°51.122 303.4 12.7 296 8.9
2007-08-29 07:10:57 51°17.778 2°51.096 303.8 12.8 296 9
2007-08-29 07:11:01 51°17.784 2°51.076 304.1 12.7 297 8.9
2007-08-29 07:11:06 51°17.792 2°51.051 304.4 12.8 296 9.3
2007-08-29 07:11:12 51°17.802 2°51.021 304.4 12.8 297 9.3
2007-08-29 07:11:17 51°17.809 2°50.995 304.7 12.8 295 9.5
2007-08-29 07:11:21 51°17.815 2°50.974 304.1 12.8 295 9.7
2007-08-29 07:11:27 51°17.824 2°50.943 303.3 12.8 294 9.8
2007-08-29 07:11:32 51°17.831 2°50.917 302.6 12.8 294 9.9
2007-08-29 07:11:37 51°17.839 2°50.891 302 12.8 294 10.2
2007-08-29 07:11:42 51°17.846 2°50.866 301.9 12.8 295 10.4
2007-08-29 07:11:47 51°17.854 2°50.84 302.5 12.9 295 10.4
2007-08-29 07:11:52 51°17.861 2°50.814 302.7 12.9 295 10.4
2007-08-29 07:11:57 51°17.868 2°50.788 302.9 12.8 295 10.3
2007-08-29 07:12:02 51°17.876 2°50.763 302.9 12.8 295 10.7
2007-08-29 07:12:07 51°17.883 2°50.737 302.9 12.8 295 10.6
2007-08-29 07:12:12 51°17.891 2°50.711 302.6 12.9 294 10.8
2007-08-29 07:12:17 51°17.898 2°50.685 302.5 12.8 295 11
2007-08-29 07:12:22 51°17.905 2°50.659 302.6 12.8 294 11
2007-08-29 07:12:27 51°17.912 2°50.633 302.3 12.9 294 11
2007-08-29 07:12:32 51°17.919 2°50.607 302.1 12.8 294 11.1
2007-08-29 07:12:37 51°17.926 2°50.58 301.7 12.9 293 11.2
2007-08-29 07:12:42 51°17.933 2°50.554 301.3 12.9 293 11.3
2007-08-29 07:12:47 51°17.941 2°50.528 301.4 12.9 294 11.3
2007-08-29 07:12:52 51°17.947 2°50.501 301.7 13 292 11.3
2007-08-29 07:12:57 51°17.955 2°50.475 301.2 12.9 294 11.4
2007-08-29 07:13:01 51°17.96 2°50.454 301.9 13 293 11.6
2007-08-29 07:13:07 51°17.969 2°50.423 302.1 13 294 11.5
2007-08-29 07:13:12 51°17.977 2°50.396 302.2 13.1 294 11.5
2007-08-29 07:13:17 51°17.984 2°50.369 302.7 13.2 294 11.9
2007-08-29 07:13:22 51°17.992 2°50.343 302.7 13.2 294 11.7
2007-08-29 07:13:27 51°17.999 2°50.316 302.7 13.3 294 11.8
2007-08-29 07:13:32 51°18.006 2°50.288 302.6 13.3 293 12.2
2007-08-29 07:13:37 51°18.014 2°50.261 302.1 13.4 293 12
2007-08-29 07:13:41 51°18.02 2°50.239 301.9 13.4 294 12.2
2007-08-29 07:13:47 51°18.029 2°50.206 302.3 13.5 293 12
2007-08-29 07:13:52 51°18.036 2°50.179 302.4 13.4 294 12.1
2007-08-29 07:13:57 51°18.044 2°50.152 302.5 13.5 293 12.2
2007-08-29 07:14:02 51°18.051 2°50.124 302.4 13.5 293 12.2
2007-08-29 07:14:07 51°18.058 2°50.097 301.9 13.5 293 12.4
2007-08-29 07:14:12 51°18.066 2°50.07 301.7 13.5 293 12.4
2007-08-29 07:14:16 51°18.071 2°50.048 301.7 13.6 293 12.4
2007-08-29 07:14:22 51°18.08 2°50.015 301.7 13.5 293 12.4
2007-08-29 07:14:27 51°18.088 2°49.988 301.9 13.4 295 12.4
2007-08-29 07:14:32 51°18.096 2°49.961 302.6 13.4 294 12.4
2007-08-29 07:14:37 51°18.103 2°49.934 303 13.4 294 12.5
2007-08-29 07:14:42 51°18.111 2°49.906 303.1 13.4 294 12.6
2007-08-29 07:14:47 51°18.118 2°49.879 303 13.4 294 12.6
2007-08-29 07:14:52 51°18.126 2°49.852 302.8 13.4 294 12.6
2007-08-29 07:14:56 51°18.132 2°49.83 302.5 13.4 294 12.4
2007-08-29 07:15:02 51°18.141 2°49.797 302.8 13.5 294 12.4
2007-08-29 07:15:07 51°18.149 2°49.771 302.9 13.4 295 12.2
2007-08-29 07:15:12 51°18.157 2°49.743 303.6 13.5 294 12.4
2007-08-29 07:15:17 51°18.165 2°49.716 303.4 13.4 295 12.3
2007-08-29 07:15:21 51°18.171 2°49.695 303.7 13.5 295 12.4
2007-08-29 07:15:27 51°18.18 2°49.662 303.5 13.5 295 12
2007-08-29 07:15:32 51°18.188 2°49.635 303.4 13.5 295 11.9
2007-08-29 07:15:37 51°18.196 2°49.608 303.3 13.6 294 11.9
2007-08-29 07:15:41 51°18.202 2°49.586 303.4 13.6 294 11.7
2007-08-29 07:15:47 51°18.211 2°49.553 302.7 13.5 294 11.6
2007-08-29 07:15:52 51°18.219 2°49.526 302.8 13.6 294 11.6
2007-08-29 07:15:57 51°18.226 2°49.499 302.8 13.5 294 11.5
2007-08-29 07:16:02 51°18.234 2°49.472 302.6 13.4 294 11.4
2007-08-29 07:16:07 51°18.241 2°49.444 302.7 13.5 293 10.9
2007-08-29 07:16:12 51°18.249 2°49.417 302.5 13.4 294 10.5
2007-08-29 07:16:16 51°18.254 2°49.395 302.5 13.5 293 10
2007-08-29 07:16:22 51°18.264 2°49.363 302 13.3 295 10
2007-08-29 07:16:27 51°18.27 2°49.335 302.5 13.5 292 10.3
2007-08-29 07:16:32 51°18.279 2°49.309 302.1 13.4 296 10.4
2007-08-29 07:16:37 51°18.286 2°49.282 302.9 13.4 294 10.3
2007-08-29 07:16:42 51°18.294 2°49.255 303.4 13.4 295 10.2
2007-08-29 07:16:47 51°18.302 2°49.228 303.5 13.4 295 10
2007-08-29 07:16:52 51°18.31 2°49.201 303.7 13.4 295 9.9
2007-08-29 07:16:57 51°18.318 2°49.174 303.8 13.4 295 9.6
2007-08-29 07:17:02 51°18.326 2°49.148 304 13.4 295 9.3
2007-08-29 07:17:07 51°18.334 2°49.121 303.6 13.4 295 9
2007-08-29 07:17:12 51°18.342 2°49.095 303.3 13.3 295 8.8
2007-08-29 07:17:16 51°18.348 2°49.073 303.5 13.2 295 8.8
2007-08-29 07:17:21 51°18.356 2°49.047 303.2 13.3 296 9
2007-08-29 07:17:27 51°18.365 2°49.015 303.7 13.3 294 9.2
2007-08-29 07:17:32 51°18.373 2°48.988 302.9 13.4 296 9.2
2007-08-29 07:17:37 51°18.381 2°48.961 303 13.4 295 9.2
2007-08-29 07:17:41 51°18.388 2°48.94 303.3 13.5 296 9.4
2007-08-29 07:17:47 51°18.398 2°48.908 303.3 13.4 296 9.3
2007-08-29 07:17:52 51°18.406 2°48.881 303.6 13.5 297 9.3
2007-08-29 07:17:56 51°18.413 2°48.86 304.1 13.4 297 9.1
2007-08-29 07:18:00 51°18.419 2°48.839 304.7 13.4 296 8.8
2007-08-29 07:18:06 51°18.429 2°48.807 304.4 13.3 297 8.7
2007-08-29 07:18:11 51°18.438 2°48.78 304.5 13.3 296 8.8
2007-08-29 07:18:16 51°18.446 2°48.754 304.1 13.4 297 9
2007-08-29 07:18:21 51°18.454 2°48.728 304.1 13.4 296 9.4
2007-08-29 07:18:26 51°18.462 2°48.701 304.3 13.5 296 9.3
2007-08-29 07:18:31 51°18.471 2°48.674 303.8 13.5 297 9.6
2007-08-29 07:18:36 51°18.479 2°48.647 304.2 13.5 296 9.6
2007-08-29 07:18:41 51°18.487 2°48.621 303.8 13.4 296 9.6
2007-08-29 07:18:46 51°18.495 2°48.594 303.6 13.4 295 9.3
2007-08-29 07:18:51 51°18.503 2°48.567 303.2 13.3 295 9.3
2007-08-29 07:18:56 51°18.51 2°48.541 302.6 13.3 295 9.4
2007-08-29 07:19:01 51°18.519 2°48.514 302.5 13.2 296 9.5
2007-08-29 07:19:06 51°18.526 2°48.488 303.1 13.3 295 9.8
2007-08-29 07:19:11 51°18.535 2°48.461 303 13.3 297 10.1
2007-08-29 07:19:16 51°18.542 2°48.434 303.8 13.5 295 10.3
2007-08-29 07:19:21 51°18.551 2°48.408 303.8 13.4 296 10.5
2007-08-29 07:19:26 51°18.558 2°48.381 303.4 13.4 296 10.5
2007-08-29 07:19:31 51°18.566 2°48.354 303.3 13.3 295 10.5
2007-08-29 07:19:36 51°18.574 2°48.328 303.2 13.3 295 10.8
2007-08-29 07:19:40 51°18.581 2°48.307 303.2 13.2 296 11.2
2007-08-29 07:19:46 51°18.59 2°48.275 303.8 13.4 295 11.6
2007-08-29 07:19:51 51°18.598 2°48.248 303.3 13.3 296 11.6
2007-08-29 07:19:56 51°18.606 2°48.221 303.4 13.4 295 11.9
2007-08-29 07:20:00 51°18.612 2°48.2 303.3 13.3 295 12
2007-08-29 07:20:06 51°18.622 2°48.168 303.3 13.3 296 12.3
2007-08-29 07:20:11 51°18.63 2°48.142 303.3 13.3 296 12.5
2007-08-29 07:20:16 51°18.637 2°48.115 303.4 13.3 296 12.6
2007-08-29 07:20:20 51°18.644 2°48.094 303.5 13.3 295 12.7
2007-08-29 07:20:26 51°18.653 2°48.062 303.7 13.3 295 12.8
2007-08-29 07:20:31 51°18.661 2°48.035 303.4 13.4 295 12.9
2007-08-29 07:20:36 51°18.669 2°48.008 303.1 13.4 295 13.1
2007-08-29 07:20:41 51°18.676 2°47.981 303.1 13.4 294 13
2007-08-29 07:20:46 51°18.684 2°47.954 302.7 13.4 294 13.2
2007-08-29 07:20:51 51°18.692 2°47.928 302.5 13.4 294 13.5
2007-08-29 07:20:56 51°18.699 2°47.9 302.5 13.4 294 13.5
2007-08-29 07:21:01 51°18.707 2°47.873 302.4 13.4 294 13.6
2007-08-29 07:21:06 51°18.714 2°47.846 302.2 13.4 294 13.9
2007-08-29 07:21:11 51°18.722 2°47.819 302.2 13.4 294 14.1
2007-08-29 07:21:16 51°18.729 2°47.792 302.2 13.4 294 14.4
2007-08-29 07:21:21 51°18.737 2°47.765 302.1 13.4 294 14.5
2007-08-29 07:21:26 51°18.744 2°47.738 302.5 13.4 294 14.7
2007-08-29 07:21:31 51°18.752 2°47.711 302.7 13.4 295 14.8
2007-08-29 07:21:35 51°18.758 2°47.689 303 13.4 294 14.9
2007-08-29 07:21:41 51°18.767 2°47.657 302.9 13.4 294 15.1
2007-08-29 07:21:46 51°18.775 2°47.63 303.1 13.5 294 15.3
2007-08-29 07:21:51 51°18.782 2°47.602 303 13.5 293 15.4
2007-08-29 07:21:56 51°18.789 2°47.575 302.6 13.5 292 15.5
2007-08-29 07:22:01 51°18.796 2°47.547 302 13.4 293 15.9
2007-08-29 07:22:06 51°18.803 2°47.52 301.9 13.4 293 16.1
2007-08-29 07:22:11 51°18.81 2°47.493 302.4 13.5 293 16.2
2007-08-29 07:22:16 51°18.818 2°47.466 302.1 13.5 293 16.6
2007-08-29 07:22:20 51°18.823 2°47.444 302.4 13.5 293 16.6
2007-08-29 07:22:26 51°18.833 2°47.411 302.2 13.5 294 16.7
2007-08-29 07:22:31 51°18.84 2°47.384 302.7 13.5 293 16.9
2007-08-29 07:22:36 51°18.847 2°47.357 302.9 13.4 294 17.1
2007-08-29 07:22:41 51°18.855 2°47.33 303.2 13.4 294 17.4
2007-08-29 07:22:46 51°18.862 2°47.303 303.6 13.5 293 17.6
2007-08-29 07:22:51 51°18.87 2°47.275 303.5 13.4 293 17.6
2007-08-29 07:22:56 51°18.877 2°47.248 303 13.5 293 17.7
2007-08-29 07:23:00 51°18.883 2°47.226 303.2 13.4 294 17.8
2007-08-29 07:23:06 51°18.892 2°47.194 303.1 13.4 293 17.9
2007-08-29 07:23:11 51°18.9 2°47.167 303.3 13.4 294 18.1
2007-08-29 07:23:16 51°18.907 2°47.14 303.6 13.4 294 18.1
2007-08-29 07:23:21 51°18.915 2°47.112 303.5 13.4 293 18.2
2007-08-29 07:23:26 51°18.922 2°47.085 303.2 13.4 294 18.3
2007-08-29 07:23:31 51°18.929 2°47.058 303.3 13.4 294 18.6
2007-08-29 07:23:36 51°18.937 2°47.031 303.4 13.4 293 18.7
2007-08-29 07:23:41 51°18.944 2°47.003 303.5 13.4 293 18.8
2007-08-29 07:23:46 51°18.951 2°46.976 303.3 13.5 292 18.9
2007-08-29 07:23:51 51°18.959 2°46.948 302.7 13.5 292 19.1
2007-08-29 07:23:56 51°18.966 2°46.921 302.9 13.5 293 19.3
2007-08-29 07:24:01 51°18.973 2°46.893 302.7 13.6 293 19.3
2007-08-29 07:24:06 51°18.981 2°46.865 303 13.5 293 19.3
2007-08-29 07:24:11 51°18.988 2°46.837 303.1 13.6 293 19.3
2007-08-29 07:24:16 51°18.996 2°46.81 303 13.6 294 19.6
2007-08-29 07:24:20 51°19.001 2°46.787 303.1 13.7 292 19.6
2007-08-29 07:24:27 51°19.011 2°46.748 303 13.7 293 19.5
2007-08-29 07:24:32 51°19.019 2°46.72 302.7 13.7 292 19.6
2007-08-29 07:24:37 51°19.026 2°46.692 302.6 13.6 293 19.7
2007-08-29 07:24:40 51°19.03 2°46.675 302.8 13.7 292 19.7
2007-08-29 07:24:47 51°19.04 2°46.636 302.5 13.7 292 19.5
2007-08-29 07:24:52 51°19.047 2°46.608 302.2 13.8 292 19.6
2007-08-29 07:24:56 51°19.053 2°46.586 302.2 13.7 293 19.8
2007-08-29 07:25:02 51°19.062 2°46.551 302.9 13.8 291 19.7
2007-08-29 07:25:07 51°19.069 2°46.524 302.7 13.7 294 19.7
2007-08-29 07:25:11 51°19.075 2°46.501 302.7 13.8 291 19.7
2007-08-29 07:25:16 51°19.082 2°46.473 302.8 13.7 293 19.6
2007-08-29 07:25:22 51°19.091 2°46.439 303 13.7 293 20.1
2007-08-29 07:25:27 51°19.099 2°46.411 303.7 13.7 294 20
2007-08-29 07:25:32 51°19.106 2°46.383 304.3 13.7 293 20
2007-08-29 07:25:36 51°19.112 2°46.361 303.8 13.8 293 20
2007-08-29 07:25:42 51°19.121 2°46.327 303.6 13.8 293 20
2007-08-29 07:25:47 51°19.129 2°46.299 303.5 13.8 293 19.7
2007-08-29 07:25:52 51°19.136 2°46.271 303.6 13.9 293 19.7
2007-08-29 07:25:56 51°19.142 2°46.249 304 13.8 293 19.4
2007-08-29 07:26:01 51°19.15 2°46.221 304.1 13.7 293 18.5
2007-08-29 07:26:07 51°19.159 2°46.187 304.1 13.9 293 19.5
2007-08-29 07:26:12 51°19.166 2°46.159 303.8 13.8 293 19.2
2007-08-29 07:26:16 51°19.172 2°46.137 303.7 13.8 293 19.1
2007-08-29 07:26:22 51°19.181 2°46.103 303.7 13.8 292 18.6
2007-08-29 07:26:27 51°19.188 2°46.074 303.1 13.8 292 18.4
2007-08-29 07:26:32 51°19.195 2°46.045 302.8 13.8 291 18
2007-08-29 07:26:36 51°19.201 2°46.023 302.4 13.8 292 17.7
2007-08-29 07:26:40 51°19.207 2°46 302.3 13.7 292 17.5
2007-08-29 07:26:47 51°19.217 2°45.96 302.6 13.6 293 17
2007-08-29 07:26:52 51°19.224 2°45.932 302.9 13.6 293 17.8
2007-08-29 07:26:56 51°19.23 2°45.91 303.7 13.7 293 17.2
2007-08-29 07:27:00 51°19.236 2°45.888 303.6 13.7 292 16.5
2007-08-29 07:27:07 51°19.246 2°45.849 303.6 13.7 293 15.5
2007-08-29 07:27:11 51°19.252 2°45.826 303.4 13.7 293 16.5
2007-08-29 07:27:16 51°19.259 2°45.798 304 13.8 293 16.2
2007-08-29 07:27:22 51°19.268 2°45.765 304 13.7 294 15.6
2007-08-29 07:27:27 51°19.276 2°45.737 304.2 13.7 293 14.2
2007-08-29 07:27:31 51°19.282 2°45.715 304.3 13.7 293 15.2
2007-08-29 07:27:36 51°19.289 2°45.687 303.9 13.7 293 14.5
2007-08-29 07:27:42 51°19.298 2°45.654 303.9 13.7 294 14.6
2007-08-29 07:27:47 51°19.306 2°45.626 304.1 13.7 294 14.5
2007-08-29 07:27:52 51°19.313 2°45.598 304.1 13.7 293 12.7
2007-08-29 07:27:56 51°19.319 2°45.576 304.1 13.6 294 13.7
2007-08-29 07:28:02 51°19.328 2°45.543 304.3 13.7 294 13.9
2007-08-29 07:28:07 51°19.337 2°45.516 304.4 13.6 296 13.3
2007-08-29 07:28:12 51°19.344 2°45.488 305.3 13.6 294 11.1
2007-08-29 07:28:16 51°19.351 2°45.466 305.3 13.6 295 12.8
2007-08-29 07:28:22 51°19.36 2°45.433 304.6 13.7 294 10.8
2007-08-29 07:28:27 51°19.367 2°45.405 304.2 13.7 293 11.7
2007-08-29 07:28:32 51°19.375 2°45.378 303.4 13.7 293 10.8
2007-08-29 07:28:36 51°19.38 2°45.355 303 13.7 293 10.6
2007-08-29 07:28:42 51°19.389 2°45.322 302.5 13.6 293 8.7
2007-08-29 07:28:46 51°19.395 2°45.3 302.7 13.7 291 10.8
2007-08-29 07:28:52 51°19.404 2°45.267 301.7 13.6 295 10.4
2007-08-29 07:28:56 51°19.41 2°45.245 303 13.6 293 9.7
2007-08-29 07:29:00 51°19.416 2°45.223 303.2 13.6 294 7.6
2007-08-29 07:29:07 51°19.427 2°45.184 303.3 13.6 294 10.9
2007-08-29 07:29:12 51°19.435 2°45.157 303.4 13.7 294 11.5
2007-08-29 07:29:16 51°19.441 2°45.135 303.6 13.7 295 10.5
2007-08-29 07:29:21 51°19.449 2°45.107 304.1 13.8 294 11.9
2007-08-29 07:29:26 51°19.457 2°45.079 304 13.8 295 13.3
2007-08-29 07:29:32 51°19.466 2°45.045 303.8 13.8 294 14.4
2007-08-29 07:29:36 51°19.473 2°45.023 303.4 13.6 294 13.7
2007-08-29 07:29:40 51°19.478 2°45 303.5 13.8 293 14.5
2007-08-29 07:29:47 51°19.489 2°44.962 302.9 13.7 294 15.3
2007-08-29 07:29:52 51°19.497 2°44.934 303.1 13.7 293 17
2007-08-29 07:29:56 51°19.503 2°44.912 302.8 13.7 294 17.9
2007-08-29 07:30:02 51°19.512 2°44.878 303 13.7 293 18.8
2007-08-29 07:30:07 51°19.52 2°44.851 303.3 13.6 294 19.3
2007-08-29 07:30:12 51°19.527 2°44.823 303.2 13.6 294 19.6
2007-08-29 07:30:16 51°19.533 2°44.801 303.4 13.6 294 19.8
2007-08-29 07:30:22 51°19.543 2°44.769 303.6 13.6 295 19.9
2007-08-29 07:30:27 51°19.55 2°44.741 304 13.6 294 20
2007-08-29 07:30:31 51°19.556 2°44.719 304.1 13.6 293 20.3
2007-08-29 07:30:36 51°19.564 2°44.691 303.5 13.5 293 20.3
2007-08-29 07:30:41 51°19.571 2°44.664 303.1 13.6 293 20.5
2007-08-29 07:30:46 51°19.579 2°44.637 303.2 13.6 294 20.7
2007-08-29 07:30:51 51°19.586 2°44.609 303.3 13.6 293 20.6
2007-08-29 07:30:56 51°19.594 2°44.581 303.3 13.6 294 20.7
2007-08-29 07:31:01 51°19.601 2°44.553 303.4 13.7 292 20.8
2007-08-29 07:31:07 51°19.609 2°44.52 302.8 13.5 292 20.7
2007-08-29 07:31:11 51°19.615 2°44.498 302.3 13.6 292 20.9
2007-08-29 07:31:16 51°19.622 2°44.47 302.3 13.6 292 21.1
2007-08-29 07:31:20 51°19.627 2°44.447 302.1 13.6 291 21.1
2007-08-29 07:31:26 51°19.636 2°44.414 301.8 13.7 293 21
2007-08-29 07:31:31 51°19.643 2°44.385 302.2 13.7 291 21.2
2007-08-29 07:31:36 51°19.65 2°44.358 301.9 13.7 292 21.5
2007-08-29 07:31:41 51°19.657 2°44.329 302.1 13.7 293 21.6
2007-08-29 07:31:46 51°19.664 2°44.301 302.7 13.7 293 21.7
2007-08-29 07:31:51 51°19.672 2°44.274 303.3 13.7 293 21.9
2007-08-29 07:31:56 51°19.679 2°44.246 303.2 13.7 293 22.1
2007-08-29 07:32:01 51°19.686 2°44.217 303.2 13.7 293 22.2
2007-08-29 07:32:06 51°19.694 2°44.19 303.3 13.7 293 22
2007-08-29 07:32:11 51°19.701 2°44.161 303.4 13.8 292 22.6
2007-08-29 07:32:16 51°19.708 2°44.133 302.9 13.7 292 22.5
2007-08-29 07:32:21 51°19.715 2°44.105 302.6 13.8 292 22.8
2007-08-29 07:32:26 51°19.722 2°44.076 302.5 13.8 292 22.8
2007-08-29 07:32:32 51°19.731 2°44.042 302.2 13.8 292 23
2007-08-29 07:32:36 51°19.736 2°44.019 302.7 13.8 291 22.9
2007-08-29 07:32:41 51°19.743 2°43.991 302.1 13.8 292 23
2007-08-29 07:32:46 51°19.75 2°43.963 302.2 13.8 292 23
2007-08-29 07:32:51 51°19.757 2°43.934 302.5 13.8 292 23
2007-08-29 07:32:56 51°19.765 2°43.906 302.8 13.8 292 23
2007-08-29 07:33:01 51°19.772 2°43.878 303 13.8 292 22.9
2007-08-29 07:33:06 51°19.779 2°43.85 303.1 13.7 293 22.9
2007-08-29 07:33:11 51°19.787 2°43.821 303.5 13.9 292 23
2007-08-29 07:33:16 51°19.794 2°43.793 303.7 13.8 293 23
2007-08-29 07:33:20 51°19.8 2°43.771 303.9 13.7 292 23.1
2007-08-29 07:33:26 51°19.809 2°43.737 303.8 13.8 292 22.7
2007-08-29 07:33:31 51°19.816 2°43.709 303.4 13.8 292 22.7
2007-08-29 07:33:36 51°19.823 2°43.681 303.4 13.7 293 22.3
2007-08-29 07:33:40 51°19.829 2°43.658 303.8 13.7 292 22.1
2007-08-29 07:33:46 51°19.837 2°43.624 303.3 13.8 291 22.4
2007-08-29 07:33:52 51°19.846 2°43.59 302.7 13.8 292 22.7
2007-08-29 07:33:57 51°19.853 2°43.562 303 13.7 292 22.9
2007-08-29 07:34:01 51°19.859 2°43.539 303.3 13.8 292 23.7
2007-08-29 07:34:07 51°19.868 2°43.505 303.1 13.7 292 24
2007-08-29 07:34:12 51°19.875 2°43.477 303.2 13.8 292 24.3
2007-08-29 07:34:17 51°19.882 2°43.449 303.2 13.7 293 24.4
2007-08-29 07:34:22 51°19.889 2°43.42 303.5 13.8 292 24.6
2007-08-29 07:34:27 51°19.896 2°43.392 303.3 13.8 292 24.7
2007-08-29 07:34:32 51°19.903 2°43.364 303.1 13.8 292 24.8
2007-08-29 07:34:37 51°19.91 2°43.336 303.1 13.8 292 24.6
2007-08-29 07:34:42 51°19.917 2°43.307 302.8 13.7 292 24.4
2007-08-29 07:34:47 51°19.925 2°43.279 302.9 13.8 292 24.5
2007-08-29 07:34:52 51°19.932 2°43.251 303.3 13.7 292 24.5
2007-08-29 07:34:57 51°19.938 2°43.222 303.3 13.7 291 24.6
2007-08-29 07:35:02 51°19.946 2°43.194 302.8 13.7 292 24.7
2007-08-29 07:35:07 51°19.952 2°43.165 303.2 13.8 291 24.6
2007-08-29 07:35:12 51°19.96 2°43.137 302.8 13.8 292 24.7
2007-08-29 07:35:16 51°19.965 2°43.114 303.3 13.8 292 24.8
2007-08-29 07:35:22 51°19.974 2°43.08 303.3 13.8 293 24.8
2007-08-29 07:35:27 51°19.981 2°43.051 303.4 13.9 292 24.8
2007-08-29 07:35:32 51°19.989 2°43.023 303.6 13.9 292 24.9
2007-08-29 07:35:36 51°19.994 2°43 303.8 13.8 292 24.8
2007-08-29 07:35:40 51°20 2°42.977 303.4 13.9 292 24.8
2007-08-29 07:35:47 51°20.01 2°42.937 303.5 13.9 292 24.7
2007-08-29 07:35:52 51°20.017 2°42.908 303.2 14 292 24.4
2007-08-29 07:35:57 51°20.024 2°42.879 302.9 14 291 24
2007-08-29 07:36:02 51°20.031 2°42.851 302.5 13.9 292 24.4
2007-08-29 07:36:07 51°20.038 2°42.822 303.3 14 291 24.3
2007-08-29 07:36:12 51°20.045 2°42.793 303.1 14 292 24.3
2007-08-29 07:36:16 51°20.051 2°42.77 303 14 291 24
2007-08-29 07:36:21 51°20.058 2°42.741 303.1 14 291 24
2007-08-29 07:36:27 51°20.066 2°42.707 303.1 13.9 291 23.9
2007-08-29 07:36:32 51°20.073 2°42.678 302.8 14 291 23.6
2007-08-29 07:36:37 51°20.08 2°42.649 302.8 14 290 23
2007-08-29 07:36:41 51°20.086 2°42.626 302.9 14 291 22.6
2007-08-29 07:36:47 51°20.094 2°42.591 303.3 14 291 23.1
2007-08-29 07:36:52 51°20.101 2°42.562 303.4 14 291 23
2007-08-29 07:36:57 51°20.108 2°42.533 303.3 14.1 290 23.2
2007-08-29 07:37:02 51°20.115 2°42.504 303 14 291 23
2007-08-29 07:37:07 51°20.122 2°42.475 302.6 14 290 22.8
2007-08-29 07:37:12 51°20.129 2°42.447 302.5 14 291 22.5
2007-08-29 07:37:16 51°20.134 2°42.424 303 14 292 21.4
2007-08-29 07:37:22 51°20.143 2°42.389 303.5 14 290 21.4
2007-08-29 07:37:27 51°20.15 2°42.36 303 14 291 22.2
2007-08-29 07:37:32 51°20.157 2°42.331 303.1 13.9 292 22
2007-08-29 07:37:37 51°20.164 2°42.303 303.3 13.9 292 21.7
2007-08-29 07:37:42 51°20.171 2°42.274 304 13.9 292 21.2
2007-08-29 07:37:47 51°20.179 2°42.246 303.8 13.8 292 20.5
2007-08-29 07:37:52 51°20.185 2°42.217 303.8 13.9 290 19.9
2007-08-29 07:37:56 51°20.192 2°42.195 303.3 13.8 293 17.6
2007-08-29 07:38:01 51°20.198 2°42.165 303.8 14 290 17.1
2007-08-29 07:38:07 51°20.206 2°42.131 303 14 292 19.2
2007-08-29 07:38:11 51°20.212 2°42.108 302.6 14 291 18.8
2007-08-29 07:38:16 51°20.219 2°42.079 302.8 13.9 292 17
2007-08-29 07:38:22 51°20.227 2°42.045 302.9 13.9 290 18
2007-08-29 07:38:27 51°20.235 2°42.016 302.6 13.9 293 17.7
2007-08-29 07:38:32 51°20.241 2°41.987 303.3 13.9 291 17.7
2007-08-29 07:38:37 51°20.249 2°41.959 303.3 13.9 292 17.2
2007-08-29 07:38:42 51°20.256 2°41.93 303.2 13.9 291 13.6
2007-08-29 07:38:47 51°20.263 2°41.901 303.4 14 291 16.5
2007-08-29 07:38:52 51°20.27 2°41.873 302.7 13.9 292 17.2
2007-08-29 07:38:56 51°20.276 2°41.851 302.8 13.8 293 16.9
2007-08-29 07:39:01 51°20.283 2°41.822 303.7 13.9 292 16.8
2007-08-29 07:39:07 51°20.292 2°41.789 303.6 13.8 294 17.3
2007-08-29 07:39:12 51°20.3 2°41.76 304 13.9 292 15.7
2007-08-29 07:39:17 51°20.307 2°41.732 303.8 13.9 293 17.2
2007-08-29 07:39:22 51°20.315 2°41.704 303.6 13.8 293 18.4
2007-08-29 07:39:27 51°20.322 2°41.675 303.2 13.9 292 18.6
2007-08-29 07:39:32 51°20.329 2°41.647 303.1 13.8 293 18.6
2007-08-29 07:39:37 51°20.336 2°41.619 303.5 13.8 292 19.1
2007-08-29 07:39:42 51°20.344 2°41.591 303.2 13.7 293 19.8
2007-08-29 07:39:47 51°20.351 2°41.563 303.3 13.7 293 20.5
2007-08-29 07:39:52 51°20.358 2°41.535 303.8 13.7 292 20.4
2007-08-29 07:39:56 51°20.364 2°41.513 303.3 13.7 293 20.8
2007-08-29 07:40:01 51°20.371 2°41.484 303.5 13.7 291 20.1
2007-08-29 07:40:07 51°20.38 2°41.451 302.6 13.7 294 19
2007-08-29 07:40:12 51°20.387 2°41.422 303.5 13.9 291 18.6
2007-08-29 07:40:16 51°20.394 2°41.4 303 13.6 295 18.9
2007-08-29 07:40:21 51°20.401 2°41.373 303.9 13.7 292 19.6
2007-08-29 07:40:27 51°20.41 2°41.34 303.7 13.7 295 19.6
2007-08-29 07:40:32 51°20.418 2°41.312 304.1 13.6 294 19.5
2007-08-29 07:40:37 51°20.425 2°41.285 304.3 13.6 292 19.9
2007-08-29 07:40:41 51°20.431 2°41.263 303.5 13.5 294 19.8
2007-08-29 07:40:47 51°20.44 2°41.229 303.5 13.6 292 20.5
2007-08-29 07:40:52 51°20.447 2°41.202 302.8 13.6 293 21.7
2007-08-29 07:40:57 51°20.454 2°41.174 302.6 13.6 292 23.1
2007-08-29 07:41:02 51°20.461 2°41.146 302.9 13.5 291 24.1
2007-08-29 07:41:07 51°20.467 2°41.117 302 13.6 289 25.2
2007-08-29 07:41:12 51°20.472 2°41.088 300.3 13.6 286 25.7
2007-08-29 07:41:17 51°20.477 2°41.059 297.5 13.7 286 26.2
2007-08-29 07:41:22 51°20.481 2°41.03 295.7 13.7 283 26.3
2007-08-29 07:41:27 51°20.486 2°41 294.3 13.7 284 26.5
2007-08-29 07:41:32 51°20.49 2°40.97 293.3 13.8 282 26.8
2007-08-29 07:41:36 51°20.493 2°40.947 292.2 13.8 283 26.8
2007-08-29 07:41:42 51°20.498 2°40.91 292.2 13.9 281 26.8
2007-08-29 07:41:46 51°20.501 2°40.886 291.5 13.9 282 26.8
2007-08-29 07:41:51 51°20.505 2°40.856 291.2 13.8 282 26.7
2007-08-29 07:41:56 51°20.508 2°40.826 291.3 13.9 281 26.4
2007-08-29 07:42:01 51°20.513 2°40.796 291.8 13.9 281 26.3
2007-08-29 07:42:06 51°20.517 2°40.766 291.9 13.9 282 26.3
2007-08-29 07:42:11 51°20.52 2°40.735 292 14 281 26.2
2007-08-29 07:42:16 51°20.524 2°40.705 291.7 13.9 282 26.1
2007-08-29 07:42:21 51°20.528 2°40.675 292.2 13.9 282 26.1
2007-08-29 07:42:26 51°20.533 2°40.645 292.2 13.8 283 26
2007-08-29 07:42:31 51°20.537 2°40.615 293.2 13.9 281 26.1
2007-08-29 07:42:36 51°20.541 2°40.585 292.6 13.8 284 26
2007-08-29 07:42:42 51°20.546 2°40.549 293.3 13.9 282 25.7
2007-08-29 07:42:46 51°20.55 2°40.526 292.9 13.8 284 25.9
2007-08-29 07:42:51 51°20.554 2°40.496 293.2 13.9 282 25.9
2007-08-29 07:42:56 51°20.558 2°40.466 292.6 13.9 282 25.9
2007-08-29 07:43:00 51°20.561 2°40.442 291.9 13.8 283 25.8
2007-08-29 07:43:06 51°20.565 2°40.405 291.8 14 279 25.7
2007-08-29 07:43:11 51°20.568 2°40.375 290.4 13.9 280 25.9
2007-08-29 07:43:16 51°20.571 2°40.344 289.6 13.9 279 25.9
2007-08-29 07:43:21 51°20.574 2°40.314 289 13.9 280 26
2007-08-29 07:43:26 51°20.578 2°40.284 289.6 14 279 25.8
2007-08-29 07:43:31 51°20.581 2°40.253 289.4 13.9 280 25.7
2007-08-29 07:43:36 51°20.584 2°40.223 289.6 13.9 279 25.7
2007-08-29 07:43:42 51°20.588 2°40.187 289.5 13.9 279 25.7
2007-08-29 07:43:47 51°20.591 2°40.157 289 13.8 280 26
2007-08-29 07:43:52 51°20.594 2°40.126 289.7 13.9 279 25.9
2007-08-29 07:43:56 51°20.597 2°40.102 289.7 13.8 280 26
2007-08-29 07:44:02 51°20.601 2°40.066 289.4 13.8 280 25.8
2007-08-29 07:44:07 51°20.604 2°40.035 289.8 13.9 279 25.6
2007-08-29 07:44:12 51°20.607 2°40.005 289.6 13.8 280 25.6
2007-08-29 07:44:16 51°20.61 2°39.981 289.6 13.9 278 25.2
2007-08-29 07:44:22 51°20.614 2°39.945 289.3 13.8 280 25
2007-08-29 07:44:27 51°20.617 2°39.914 289.8 14 279 24.6
2007-08-29 07:44:32 51°20.62 2°39.884 289.5 13.8 281 24.1
2007-08-29 07:44:36 51°20.622 2°39.86 290.3 13.8 279 23.5
2007-08-29 07:44:42 51°20.627 2°39.824 290 13.8 280 24
2007-08-29 07:44:47 51°20.63 2°39.794 290.1 13.8 280 23.9
2007-08-29 07:44:52 51°20.631 2°39.763 290.1 13.9 277 24
2007-08-29 07:44:56 51°20.633 2°39.739 287.6 13.8 277 23.7
2007-08-29 07:45:02 51°20.634 2°39.702 286.3 13.9 273 23.9
2007-08-29 07:45:07 51°20.636 2°39.672 284.1 13.8 273 24.1
2007-08-29 07:45:12 51°20.636 2°39.641 282.7 13.9 272 24.5
2007-08-29 07:45:17 51°20.637 2°39.61 281.2 13.9 272 24.5
2007-08-29 07:45:22 51°20.637 2°39.579 280.9 14 271 24.4
2007-08-29 07:45:27 51°20.638 2°39.548 280.4 14 271 24.3
2007-08-29 07:45:32 51°20.638 2°39.517 280.3 13.9 272 24.3
2007-08-29 07:45:36 51°20.64 2°39.492 281.3 14 273 24.4
2007-08-29 07:45:41 51°20.641 2°39.461 282.3 13.9 275 24.2
2007-08-29 07:45:46 51°20.642 2°39.431 283.2 13.9 274 24.1
2007-08-29 07:45:51 51°20.644 2°39.4 284.1 14 276 24.2
2007-08-29 07:45:56 51°20.646 2°39.369 284.9 13.9 274 23.8
2007-08-29 07:46:01 51°20.647 2°39.339 284.5 13.8 275 23.8
2007-08-29 07:46:07 51°20.649 2°39.302 285 14 274 23.9
2007-08-29 07:46:12 51°20.652 2°39.271 284.8 13.9 276 23.7
2007-08-29 07:46:16 51°20.652 2°39.247 285.5 13.8 274 24
2007-08-29 07:46:21 51°20.654 2°39.216 284.5 13.9 275 23.8
2007-08-29 07:46:26 51°20.655 2°39.185 284.4 13.9 274 23.6
2007-08-29 07:46:31 51°20.657 2°39.154 284 14 274 23.8
2007-08-29 07:46:36 51°20.658 2°39.123 284.2 14 275 23.6
2007-08-29 07:46:41 51°20.66 2°39.093 284.3 14 275 23.7
2007-08-29 07:46:46 51°20.662 2°39.062 284.7 14 275 23.8
2007-08-29 07:46:51 51°20.663 2°39.031 285.1 14 274 23.8
2007-08-29 07:46:56 51°20.665 2°39 284.9 14 276 23.8
2007-08-29 07:47:01 51°20.667 2°38.969 285 14 275 23.7
2007-08-29 07:47:06 51°20.669 2°38.939 285.5 14 275 23.9
2007-08-29 07:47:11 51°20.67 2°38.908 284.9 14 275 23.6
2007-08-29 07:47:16 51°20.672 2°38.877 285 14 275 23.5
2007-08-29 07:47:20 51°20.673 2°38.852 285 14 275 23.3
2007-08-29 07:47:26 51°20.675 2°38.815 284.8 14.1 274 23.4
2007-08-29 07:47:31 51°20.676 2°38.784 284.7 14 275 23
2007-08-29 07:47:36 51°20.677 2°38.753 284.8 14.1 274 22.2
2007-08-29 07:47:41 51°20.679 2°38.722 284.3 14 274 22.8
2007-08-29 07:47:46 51°20.68 2°38.691 284.2 14 275 23.5
2007-08-29 07:47:51 51°20.682 2°38.66 284.6 14 274 23.2
2007-08-29 07:47:56 51°20.684 2°38.63 284.6 14 276 23.2
2007-08-29 07:48:01 51°20.686 2°38.599 285.8 14 275 22.3
2007-08-29 07:48:06 51°20.688 2°38.568 285.6 13.9 276 22.6
2007-08-29 07:48:11 51°20.69 2°38.538 286.1 13.9 276 23.2
2007-08-29 07:48:16 51°20.692 2°38.507 286.4 13.9 276 23.1
2007-08-29 07:48:21 51°20.694 2°38.476 286.2 14 276 22.9
2007-08-29 07:48:26 51°20.696 2°38.445 286 14 275 22.7
2007-08-29 07:48:31 51°20.697 2°38.414 285.9 14 275 22.4
2007-08-29 07:48:36 51°20.699 2°38.384 285.2 13.9 275 22.9
2007-08-29 07:48:41 51°20.701 2°38.352 285.3 14 274 22.6
2007-08-29 07:48:46 51°20.703 2°38.322 284.8 14 276 21.8
2007-08-29 07:48:51 51°20.705 2°38.291 285.5 13.9 275 22.1
2007-08-29 07:48:56 51°20.707 2°38.261 285.8 13.8 277 22.9
2007-08-29 07:49:01 51°20.709 2°38.23 286.1 14 276 23
2007-08-29 07:49:06 51°20.711 2°38.199 285.9 13.9 276 22.4
2007-08-29 07:49:11 51°20.713 2°38.169 285.8 13.9 275 21.4
2007-08-29 07:49:16 51°20.714 2°38.138 285.8 14 274 22.8
2007-08-29 07:49:21 51°20.716 2°38.107 284.7 14 277 22.5
2007-08-29 07:49:26 51°20.718 2°38.076 285.2 14 275 21.2
2007-08-29 07:49:31 51°20.72 2°38.045 285 13.9 276 22.4
2007-08-29 07:49:36 51°20.721 2°38.014 284.9 14 275 22.7
2007-08-29 07:49:40 51°20.723 2°37.99 284.9 14 277 22.4
2007-08-29 07:49:46 51°20.725 2°37.953 286 13.9 275 21.4
2007-08-29 07:49:51 51°20.727 2°37.922 285.7 13.9 275 22.2
2007-08-29 07:49:56 51°20.729 2°37.892 285.2 13.9 276 22.1
2007-08-29 07:50:01 51°20.731 2°37.86 285.7 14 275 21.8
2007-08-29 07:50:06 51°20.733 2°37.83 285.6 13.9 276 22
2007-08-29 07:50:11 51°20.735 2°37.799 285.7 14 275 22
2007-08-29 07:50:16 51°20.737 2°37.768 285.8 13.9 276 21.8
2007-08-29 07:50:21 51°20.738 2°37.738 285.7 13.8 275 23
2007-08-29 07:50:26 51°20.74 2°37.707 285.6 13.9 275 22.6
2007-08-29 07:50:31 51°20.742 2°37.676 284.9 13.9 276 21.1
2007-08-29 07:50:36 51°20.744 2°37.646 285.6 13.9 275 22.8
2007-08-29 07:50:41 51°20.745 2°37.615 285.5 13.9 275 22.5
2007-08-29 07:50:46 51°20.748 2°37.584 284.7 14 276 22.4
2007-08-29 07:50:51 51°20.749 2°37.553 285.3 14.1 275 22.3
2007-08-29 07:50:56 51°20.751 2°37.522 285.2 13.9 275 22.4
2007-08-29 07:51:01 51°20.752 2°37.491 285 14 275 22.7
2007-08-29 07:51:06 51°20.754 2°37.461 284.6 13.9 276 20.5
2007-08-29 07:51:11 51°20.756 2°37.43 284.9 13.8 276 22.5
2007-08-29 07:51:16 51°20.758 2°37.399 285.6 13.9 275 22.8
2007-08-29 07:51:21 51°20.76 2°37.369 285.2 13.9 276 23
2007-08-29 07:51:26 51°20.762 2°37.338 285.3 14 275 22.5
2007-08-29 07:51:31 51°20.764 2°37.307 285.2 14 275 22.1
2007-08-29 07:51:36 51°20.765 2°37.276 285 14.1 275 22.1
2007-08-29 07:51:40 51°20.766 2°37.251 284.7 14.1 274 22.6
2007-08-29 07:51:46 51°20.769 2°37.214 284.5 14.1 276 21.9
2007-08-29 07:51:51 51°20.77 2°37.183 284.6 14.1 275 22.1
2007-08-29 07:51:56 51°20.772 2°37.151 285.2 14.2 276 22.1
2007-08-29 07:52:01 51°20.774 2°37.12 285.3 14.2 276 22
2007-08-29 07:52:06 51°20.776 2°37.089 285.3 14.2 276 21
2007-08-29 07:52:11 51°20.778 2°37.057 285.9 14.2 276 21
2007-08-29 07:52:16 51°20.78 2°37.026 286.1 14.2 275 21.1
2007-08-29 07:52:20 51°20.782 2°37.001 285.3 14.2 276 21.1
2007-08-29 07:52:26 51°20.784 2°36.964 285.6 14.1 275 21.2
2007-08-29 07:52:31 51°20.786 2°36.933 285.5 14.1 275 20.1
2007-08-29 07:52:37 51°20.788 2°36.895 285.2 14.1 275 20.7
2007-08-29 07:52:42 51°20.79 2°36.864 285 14.2 275 21.3
2007-08-29 07:52:46 51°20.791 2°36.839 285.1 14.2 276 20.5
2007-08-29 07:52:51 51°20.793 2°36.807 285 14.2 274 19.9
2007-08-29 07:52:56 51°20.795 2°36.776 284.8 14.2 276 21
2007-08-29 07:53:01 51°20.796 2°36.745 285.1 14.2 275 21.1
2007-08-29 07:53:06 51°20.798 2°36.713 285.4 14.2 276 20.2
2007-08-29 07:53:11 51°20.8 2°36.682 285.1 14.2 276 20.8
2007-08-29 07:53:16 51°20.802 2°36.65 285.8 14.3 276 21.1
2007-08-29 07:53:21 51°20.805 2°36.619 285.8 14.2 277 20.6
2007-08-29 07:53:26 51°20.806 2°36.587 286.2 14.4 274 21.2
2007-08-29 07:53:31 51°20.808 2°36.556 285.2 14.3 277 20.7
2007-08-29 07:53:36 51°20.81 2°36.524 285.1 14.3 275 20.4
2007-08-29 07:53:41 51°20.812 2°36.493 285.2 14.3 275 21.4
2007-08-29 07:53:46 51°20.814 2°36.461 285.3 14.3 275 21.6
2007-08-29 07:53:51 51°20.816 2°36.429 285.2 14.4 276 20.7
2007-08-29 07:53:56 51°20.817 2°36.398 285.2 14.4 275 21.6
2007-08-29 07:54:00 51°20.819 2°36.372 284.7 14.4 274 21.1
2007-08-29 07:54:06 51°20.821 2°36.334 284.5 14.4 275 21.3
2007-08-29 07:54:11 51°20.823 2°36.303 284.6 14.5 275 21.3
2007-08-29 07:54:16 51°20.824 2°36.27 284.6 14.5 276 20.8
2007-08-29 07:54:21 51°20.826 2°36.239 284.9 14.5 275 22.2
2007-08-29 07:54:26 51°20.829 2°36.207 285.2 14.5 276 22.8
2007-08-29 07:54:31 51°20.831 2°36.175 285.6 14.5 276 21
2007-08-29 07:54:36 51°20.833 2°36.143 285.9 14.4 277 21.4
2007-08-29 07:54:41 51°20.835 2°36.111 286.1 14.5 275 22.9
2007-08-29 07:54:46 51°20.837 2°36.079 285.7 14.5 277 24
2007-08-29 07:54:51 51°20.839 2°36.048 285.9 14.4 277 25
2007-08-29 07:54:56 51°20.841 2°36.016 285.9 14.5 275 23.9
2007-08-29 07:55:01 51°20.844 2°35.984 285.7 14.5 276 22
2007-08-29 07:55:06 51°20.845 2°35.951 285.4 14.6 275 24
2007-08-29 07:55:11 51°20.847 2°35.92 284.8 14.5 276 25.2
2007-08-29 07:55:16 51°20.849 2°35.888 284.9 14.5 275 25.4
2007-08-29 07:55:21 51°20.851 2°35.856 285.2 14.5 276 25.6
2007-08-29 07:55:26 51°20.853 2°35.823 285.1 14.5 275 23.6
2007-08-29 07:55:31 51°20.854 2°35.791 284.8 14.5 274 21.3
2007-08-29 07:55:36 51°20.855 2°35.759 284.1 14.6 274 25.1
2007-08-29 07:55:41 51°20.857 2°35.727 284.2 14.6 275 24.7
2007-08-29 07:55:46 51°20.859 2°35.695 284.4 14.5 275 26.5
2007-08-29 07:55:51 51°20.861 2°35.663 284.5 14.6 275 27.2
2007-08-29 07:55:56 51°20.863 2°35.631 284.8 14.6 275 28.2
2007-08-29 07:56:01 51°20.865 2°35.599 285.1 14.5 276 25.1
2007-08-29 07:56:06 51°20.866 2°35.567 285 14.5 275 25.3
2007-08-29 07:56:11 51°20.868 2°35.535 284.9 14.5 276 26.2
2007-08-29 07:56:16 51°20.87 2°35.503 285 14.5 275 26.5
2007-08-29 07:56:20 51°20.872 2°35.478 285.2 14.5 277 27.8
2007-08-29 07:56:26 51°20.874 2°35.439 285.7 14.5 276 29.3
2007-08-29 07:56:31 51°20.876 2°35.408 285.9 14.5 276 29.4
2007-08-29 07:56:36 51°20.878 2°35.376 285.4 14.5 276 29.8
2007-08-29 07:56:41 51°20.88 2°35.344 285.6 14.4 275 29.8
2007-08-29 07:56:46 51°20.882 2°35.312 285.3 14.4 275 25.9
2007-08-29 07:56:51 51°20.883 2°35.28 284.9 14.5 274 27.8
2007-08-29 07:56:56 51°20.885 2°35.248 285 14.6 275 28.5
2007-08-29 07:57:01 51°20.887 2°35.216 285.2 14.6 276 29.5
2007-08-29 07:57:06 51°20.889 2°35.183 285.5 14.7 275 30.5
2007-08-29 07:57:11 51°20.892 2°35.151 285.7 14.6 277 29.9
2007-08-29 07:57:16 51°20.894 2°35.119 286.2 14.5 276 29.9
2007-08-29 07:57:21 51°20.896 2°35.087 286.2 14.6 276 30.6
2007-08-29 07:57:26 51°20.897 2°35.055 286 14.7 275 30.7
2007-08-29 07:57:31 51°20.899 2°35.022 285.8 14.8 275 30
2007-08-29 07:57:36 51°20.901 2°34.99 285.2 14.6 276 30.3
2007-08-29 07:57:41 51°20.903 2°34.957 285.3 14.8 274 30.8
2007-08-29 07:57:46 51°20.905 2°34.925 285.1 14.7 276 30.4
2007-08-29 07:57:51 51°20.906 2°34.892 285.4 14.7 274 30.5
2007-08-29 07:57:56 51°20.908 2°34.86 285.2 14.8 275 30.3
2007-08-29 07:58:01 51°20.91 2°34.827 284.8 14.8 275 30.4
2007-08-29 07:58:06 51°20.912 2°34.794 285.1 14.8 275 30.7
2007-08-29 07:58:11 51°20.914 2°34.762 285.3 14.7 277 30.6
2007-08-29 07:58:16 51°20.916 2°34.729 286.2 14.9 274 30.5
2007-08-29 07:58:20 51°20.917 2°34.703 285.3 14.9 275 30.7
2007-08-29 07:58:26 51°20.92 2°34.664 285.4 14.7 276 30.2
2007-08-29 07:58:31 51°20.921 2°34.631 286 14.8 274 30.2
2007-08-29 07:58:36 51°20.923 2°34.599 284.9 14.8 276 30.6
2007-08-29 07:58:41 51°20.925 2°34.567 285.2 14.7 275 30.8
2007-08-29 07:58:46 51°20.927 2°34.534 286 14.7 275 30.6
2007-08-29 07:58:51 51°20.929 2°34.502 285.2 14.7 276 30.4
2007-08-29 07:58:56 51°20.931 2°34.469 285.4 14.7 274 30
2007-08-29 07:59:00 51°20.932 2°34.443 285.2 14.7 275 29.9
2007-08-29 07:59:06 51°20.934 2°34.404 284.8 14.8 274 29.7
2007-08-29 07:59:11 51°20.936 2°34.371 284.5 14.8 274 29.7
2007-08-29 07:59:16 51°20.937 2°34.339 284.5 14.8 275 29.6
2007-08-29 07:59:21 51°20.939 2°34.306 284.8 14.9 274 29.6
2007-08-29 07:59:26 51°20.941 2°34.273 284.9 14.8 276 29.7
2007-08-29 07:59:31 51°20.943 2°34.241 285.5 14.8 276 29.5
2007-08-29 07:59:36 51°20.945 2°34.209 285.9 14.6 277 29.5
2007-08-29 07:59:41 51°20.947 2°34.176 286 14.8 274 29.6
2007-08-29 07:59:46 51°20.949 2°34.143 285.3 14.7 276 29.6
2007-08-29 07:59:51 51°20.951 2°34.111 285.6 14.7 275 29.6
2007-08-29 07:59:56 51°20.952 2°34.079 285.2 14.8 275 29.7
2007-08-29 08:00:01 51°20.954 2°34.046 285.2 14.6 275 29.8
2007-08-29 08:00:06 51°20.956 2°34.014 285 14.7 274 29.4
2007-08-29 08:00:11 51°20.958 2°33.981 284.5 14.7 275 29.4
2007-08-29 08:00:16 51°20.959 2°33.949 284.5 14.6 274 29.4
2007-08-29 08:00:21 51°20.961 2°33.917 284.3 14.7 275 29.5
2007-08-29 08:00:26 51°20.963 2°33.884 284.3 14.7 275 29.2
2007-08-29 08:00:31 51°20.964 2°33.852 285 14.7 274 29.2
2007-08-29 08:00:36 51°20.966 2°33.82 284.9 14.6 276 29.5
2007-08-29 08:00:40 51°20.967 2°33.794 285.1 14.6 275 29.5
2007-08-29 08:00:46 51°20.97 2°33.755 285.5 14.6 276 30.1
2007-08-29 08:00:51 51°20.972 2°33.723 285.9 14.6 275 30.2
2007-08-29 08:00:56 51°20.974 2°33.691 285.5 14.5 277 30.1
2007-08-29 08:01:01 51°20.976 2°33.659 285.4 14.6 277 29.9